sensor_id;sensor_type;location;lat;lon;timestamp;temperature;humidity
14182;DHT22;7171;50.936;6.764;2022-08-21T00:02:14;20.10;99.90
14182;DHT22;7171;50.936;6.764;2022-08-21T00:04:41;20.00;99.90
14182;DHT22;7171;50.936;6.764;2022-08-21T00:07:08;19.80;99.90
14182;DHT22;7171;50.936;6.764;2022-08-21T00:09:36;19.70;99.90
14182;DHT22;7171;50.936;6.764;2022-08-21T00:12:04;19.60;99.90
14182;DHT22;7171;50.936;6.764;2022-08-21T00:14:31;19.50;99.90
14182;DHT22;7171;50.936;6.764;2022-08-21T00:16:59;19.40;99.90
14182;DHT22;7171;50.936;6.764;2022-08-21T00:19:26;19.20;99.90
14182;DHT22;7171;50.936;6.764;2022-08-21T00:21:53;19.20;99.90
14182;DHT22;7171;50.936;6.764;2022-08-21T00:24:20;19.10;99.90
14182;DHT22;7171;50.936;6.764;2022-08-21T00:26:48;18.90;99.90
14182;DHT22;7171;50.936;6.764;2022-08-21T00:29:16;18.90;99.90
14182;DHT22;7171;50.936;6.764;2022-08-21T00:31:43;18.80;99.90
14182;DHT22;7171;50.936;6.764;2022-08-21T00:34:11;18.70;99.90
14182;DHT22;7171;50.936;6.764;2022-08-21T00:36:39;18.70;99.90
14182;DHT22;7171;50.936;6.764;2022-08-21T00:39:06;18.60;99.90
14182;DHT22;7171;50.936;6.764;2022-08-21T00:41:35;18.50;99.90
14182;DHT22;7171;50.936;6.764;2022-08-21T00:44:05;18.50;99.90
14182;DHT22;7171;50.936;6.764;2022-08-21T00:46:32;18.40;99.90
14182;DHT22;7171;50.936;6.764;2022-08-21T00:48:59;18.30;99.90
14182;DHT22;7171;50.936;6.764;2022-08-21T00:51:32;18.20;99.90
14182;DHT22;7171;50.936;6.764;2022-08-21T00:54:02;18.10;99.90
14182;DHT22;7171;50.936;6.764;2022-08-21T00:56:29;18.00;99.90
14182;DHT22;7171;50.936;6.764;2022-08-21T00:58:57;18.00;99.90
14182;DHT22;7171;50.936;6.764;2022-08-21T01:01:27;17.90;99.90
14182;DHT22;7171;50.936;6.764;2022-08-21T01:03:54;17.90;99.90
14182;DHT22;7171;50.936;6.764;2022-08-21T01:06:21;17.90;99.90
14182;DHT22;7171;50.936;6.764;2022-08-21T01:08:47;17.80;99.90
14182;DHT22;7171;50.936;6.764;2022-08-21T01:11:15;17.80;99.90
14182;DHT22;7171;50.936;6.764;2022-08-21T01:13:42;17.80;99.90
14182;DHT22;7171;50.936;6.764;2022-08-21T01:16:13;17.80;99.90
14182;DHT22;7171;50.936;6.764;2022-08-21T01:18:43;17.80;99.90
14182;DHT22;7171;50.936;6.764;2022-08-21T01:21:15;18.00;99.90
14182;DHT22;7171;50.936;6.764;2022-08-21T01:23:44;17.70;99.90
14182;DHT22;7171;50.936;6.764;2022-08-21T01:26:14;17.80;99.90
14182;DHT22;7171;50.936;6.764;2022-08-21T01:28:43;17.80;99.90
14182;DHT22;7171;50.936;6.764;2022-08-21T01:31:13;17.60;99.90
14182;DHT22;7171;50.936;6.764;2022-08-21T01:33:41;17.60;99.90
14182;DHT22;7171;50.936;6.764;2022-08-21T01:36:08;17.50;99.90
14182;DHT22;7171;50.936;6.764;2022-08-21T01:38:36;17.50;99.90
14182;DHT22;7171;50.936;6.764;2022-08-21T01:41:03;17.40;99.90
14182;DHT22;7171;50.936;6.764;2022-08-21T01:43:30;17.40;99.90
14182;DHT22;7171;50.936;6.764;2022-08-21T01:45:57;17.40;99.90
14182;DHT22;7171;50.936;6.764;2022-08-21T01:48:26;17.40;99.90
14182;DHT22;7171;50.936;6.764;2022-08-21T01:53:19;17.40;99.90
14182;DHT22;7171;50.936;6.764;2022-08-21T01:55:48;17.30;99.90
14182;DHT22;7171;50.936;6.764;2022-08-21T01:58:14;17.30;99.90
14182;DHT22;7171;50.936;6.764;2022-08-21T02:00:41;17.30;99.90
14182;DHT22;7171;50.936;6.764;2022-08-21T02:03:09;17.30;99.90
14182;DHT22;7171;50.936;6.764;2022-08-21T02:05:36;17.30;99.90
14182;DHT22;7171;50.936;6.764;2022-08-21T02:08:03;17.20;99.90
14182;DHT22;7171;50.936;6.764;2022-08-21T02:10:31;17.20;99.90
14182;DHT22;7171;50.936;6.764;2022-08-21T02:13:00;17.20;99.90
14182;DHT22;7171;50.936;6.764;2022-08-21T02:15:28;17.20;99.90
14182;DHT22;7171;50.936;6.764;2022-08-21T02:17:57;17.10;99.90
14182;DHT22;7171;50.936;6.764;2022-08-21T02:20:27;17.00;99.90
14182;DHT22;7171;50.936;6.764;2022-08-21T02:22:54;17.00;99.90
14182;DHT22;7171;50.936;6.764;2022-08-21T02:25:22;17.00;99.90
14182;DHT22;7171;50.936;6.764;2022-08-21T02:27:50;17.00;99.90
14182;DHT22;7171;50.936;6.764;2022-08-21T02:30:22;16.90;99.90
14182;DHT22;7171;50.936;6.764;2022-08-21T02:32:49;16.90;99.90
14182;DHT22;7171;50.936;6.764;2022-08-21T02:35:16;16.80;99.90
14182;DHT22;7171;50.936;6.764;2022-08-21T02:37:45;16.80;99.90
14182;DHT22;7171;50.936;6.764;2022-08-21T02:40:13;16.80;99.90
14182;DHT22;7171;50.936;6.764;2022-08-21T02:42:40;16.80;99.90
14182;DHT22;7171;50.936;6.764;2022-08-21T02:45:07;16.80;99.90
14182;DHT22;7171;50.936;6.764;2022-08-21T02:47:36;16.80;99.90
14182;DHT22;7171;50.936;6.764;2022-08-21T02:50:06;16.80;99.90
14182;DHT22;7171;50.936;6.764;2022-08-21T02:52:33;16.80;99.90
14182;DHT22;7171;50.936;6.764;2022-08-21T02:55:00;16.70;99.90
14182;DHT22;7171;50.936;6.764;2022-08-21T02:57:27;16.70;99.90
14182;DHT22;7171;50.936;6.764;2022-08-21T02:59:53;16.70;99.90
14182;DHT22;7171;50.936;6.764;2022-08-21T03:02:20;16.70;99.90
14182;DHT22;7171;50.936;6.764;2022-08-21T03:04:48;16.60;99.90
14182;DHT22;7171;50.936;6.764;2022-08-21T03:07:15;16.60;99.90
14182;DHT22;7171;50.936;6.764;2022-08-21T03:09:42;16.50;99.90
14182;DHT22;7171;50.936;6.764;2022-08-21T03:12:09;16.50;99.90
14182;DHT22;7171;50.936;6.764;2022-08-21T03:14:36;16.40;99.90
14182;DHT22;7171;50.936;6.764;2022-08-21T03:17:04;16.40;99.90
14182;DHT22;7171;50.936;6.764;2022-08-21T03:21:59;16.30;99.90
14182;DHT22;7171;50.936;6.764;2022-08-21T03:24:26;16.20;99.90
14182;DHT22;7171;50.936;6.764;2022-08-21T03:26:53;16.20;99.90
14182;DHT22;7171;50.936;6.764;2022-08-21T03:29:20;16.20;99.90
14182;DHT22;7171;50.936;6.764;2022-08-21T03:31:46;16.20;99.90
14182;DHT22;7171;50.936;6.764;2022-08-21T03:34:13;16.10;99.90
14182;DHT22;7171;50.936;6.764;2022-08-21T03:36:40;16.10;99.90
14182;DHT22;7171;50.936;6.764;2022-08-21T03:41:36;16.00;99.90
14182;DHT22;7171;50.936;6.764;2022-08-21T03:44:03;16.00;99.90
14182;DHT22;7171;50.936;6.764;2022-08-21T03:46:29;15.90;99.90
14182;DHT22;7171;50.936;6.764;2022-08-21T03:48:57;15.90;99.90
14182;DHT22;7171;50.936;6.764;2022-08-21T03:51:23;15.90;99.90
14182;DHT22;7171;50.936;6.764;2022-08-21T03:53:51;15.90;99.90
14182;DHT22;7171;50.936;6.764;2022-08-21T03:56:19;15.90;99.90
14182;DHT22;7171;50.936;6.764;2022-08-21T03:58:45;15.80;99.90
14182;DHT22;7171;50.936;6.764;2022-08-21T04:01:13;15.80;99.90
14182;DHT22;7171;50.936;6.764;2022-08-21T04:03:40;15.80;99.90
14182;DHT22;7171;50.936;6.764;2022-08-21T04:06:07;15.80;99.90
14182;DHT22;7171;50.936;6.764;2022-08-21T04:08:34;15.80;99.90
14182;DHT22;7171;50.936;6.764;2022-08-21T04:11:01;15.80;99.90
14182;DHT22;7171;50.936;6.764;2022-08-21T04:13:29;15.70;99.90
14182;DHT22;7171;50.936;6.764;2022-08-21T04:15:57;15.80;99.90
14182;DHT22;7171;50.936;6.764;2022-08-21T04:18:24;15.70;99.90
14182;DHT22;7171;50.936;6.764;2022-08-21T04:20:52;15.60;99.90
14182;DHT22;7171;50.936;6.764;2022-08-21T04:23:21;15.60;99.90
14182;DHT22;7171;50.936;6.764;2022-08-21T04:25:48;15.50;99.90
14182;DHT22;7171;50.936;6.764;2022-08-21T04:28:14;15.50;99.90
14182;DHT22;7171;50.936;6.764;2022-08-21T04:30:43;15.50;99.90
14182;DHT22;7171;50.936;6.764;2022-08-21T04:33:10;15.50;99.90
14182;DHT22;7171;50.936;6.764;2022-08-21T04:35:36;15.40;99.90
14182;DHT22;7171;50.936;6.764;2022-08-21T04:38:03;15.40;99.90
14182;DHT22;7171;50.936;6.764;2022-08-21T04:40:30;15.40;99.90
14182;DHT22;7171;50.936;6.764;2022-08-21T04:43:00;15.50;99.90
14182;DHT22;7171;50.936;6.764;2022-08-21T04:45:30;15.40;99.90
14182;DHT22;7171;50.936;6.764;2022-08-21T04:48:00;15.40;99.90
14182;DHT22;7171;50.936;6.764;2022-08-21T04:50:34;15.40;99.90
14182;DHT22;7171;50.936;6.764;2022-08-21T04:53:03;15.50;99.90
14182;DHT22;7171;50.936;6.764;2022-08-21T04:55:30;15.50;99.90
14182;DHT22;7171;50.936;6.764;2022-08-21T04:57:57;15.50;99.90
14182;DHT22;7171;50.936;6.764;2022-08-21T05:00:24;15.50;99.90
14182;DHT22;7171;50.936;6.764;2022-08-21T05:02:53;15.60;99.90
14182;DHT22;7171;50.936;6.764;2022-08-21T05:05:23;15.60;99.90
14182;DHT22;7171;50.936;6.764;2022-08-21T05:07:50;15.60;99.90
14182;DHT22;7171;50.936;6.764;2022-08-21T05:10:18;15.70;99.90
14182;DHT22;7171;50.936;6.764;2022-08-21T05:12:45;15.70;99.90
14182;DHT22;7171;50.936;6.764;2022-08-21T05:15:12;15.70;99.90
14182;DHT22;7171;50.936;6.764;2022-08-21T05:17:39;15.80;99.90
14182;DHT22;7171;50.936;6.764;2022-08-21T05:20:07;15.80;99.90
14182;DHT22;7171;50.936;6.764;2022-08-21T05:22:35;15.90;99.90
14182;DHT22;7171;50.936;6.764;2022-08-21T05:25:02;15.90;99.90
14182;DHT22;7171;50.936;6.764;2022-08-21T05:27:29;15.90;99.90
14182;DHT22;7171;50.936;6.764;2022-08-21T05:29:57;16.00;99.90
14182;DHT22;7171;50.936;6.764;2022-08-21T05:32:24;16.00;99.90
14182;DHT22;7171;50.936;6.764;2022-08-21T05:34:53;16.10;99.90
14182;DHT22;7171;50.936;6.764;2022-08-21T05:37:20;16.10;99.90
14182;DHT22;7171;50.936;6.764;2022-08-21T05:39:48;16.20;99.90
14182;DHT22;7171;50.936;6.764;2022-08-21T05:42:15;16.20;99.90
14182;DHT22;7171;50.936;6.764;2022-08-21T05:44:42;16.20;99.90
14182;DHT22;7171;50.936;6.764;2022-08-21T05:47:10;16.30;99.90
14182;DHT22;7171;50.936;6.764;2022-08-21T05:49:37;16.30;99.90
14182;DHT22;7171;50.936;6.764;2022-08-21T05:52:04;16.40;99.90
14182;DHT22;7171;50.936;6.764;2022-08-21T05:54:31;16.40;99.90
14182;DHT22;7171;50.936;6.764;2022-08-21T05:56:59;16.50;99.90
14182;DHT22;7171;50.936;6.764;2022-08-21T05:59:26;16.50;99.90
14182;DHT22;7171;50.936;6.764;2022-08-21T06:01:53;16.60;99.90
14182;DHT22;7171;50.936;6.764;2022-08-21T06:04:19;16.70;99.90
14182;DHT22;7171;50.936;6.764;2022-08-21T06:06:46;16.70;99.90
14182;DHT22;7171;50.936;6.764;2022-08-21T06:09:14;16.90;99.90
14182;DHT22;7171;50.936;6.764;2022-08-21T06:11:40;17.00;99.90
14182;DHT22;7171;50.936;6.764;2022-08-21T06:14:08;17.10;99.90
14182;DHT22;7171;50.936;6.764;2022-08-21T06:21:29;17.40;99.90
14182;DHT22;7171;50.936;6.764;2022-08-21T06:23:56;17.40;99.90
14182;DHT22;7171;50.936;6.764;2022-08-21T06:26:23;17.30;99.90
14182;DHT22;7171;50.936;6.764;2022-08-21T06:28:50;17.50;99.90
14182;DHT22;7171;50.936;6.764;2022-08-21T06:31:20;17.60;99.90
14182;DHT22;7171;50.936;6.764;2022-08-21T06:33:48;17.70;99.90
14182;DHT22;7171;50.936;6.764;2022-08-21T06:36:15;17.80;99.90
14182;DHT22;7171;50.936;6.764;2022-08-21T06:38:42;17.90;99.90
14182;DHT22;7171;50.936;6.764;2022-08-21T06:41:09;17.90;99.90
14182;DHT22;7171;50.936;6.764;2022-08-21T06:43:36;18.00;99.90
14182;DHT22;7171;50.936;6.764;2022-08-21T06:46:03;18.10;99.90
14182;DHT22;7171;50.936;6.764;2022-08-21T06:48:31;18.10;99.90
14182;DHT22;7171;50.936;6.764;2022-08-21T06:50:59;18.20;99.90
14182;DHT22;7171;50.936;6.764;2022-08-21T06:53:27;18.30;99.90
14182;DHT22;7171;50.936;6.764;2022-08-21T06:55:54;18.30;99.90
14182;DHT22;7171;50.936;6.764;2022-08-21T06:58:20;18.40;99.90
14182;DHT22;7171;50.936;6.764;2022-08-21T07:00:49;18.50;99.90
14182;DHT22;7171;50.936;6.764;2022-08-21T07:03:22;18.50;99.90
14182;DHT22;7171;50.936;6.764;2022-08-21T07:05:50;18.60;99.90
14182;DHT22;7171;50.936;6.764;2022-08-21T07:08:17;18.70;99.90
14182;DHT22;7171;50.936;6.764;2022-08-21T07:10:45;18.80;99.90
14182;DHT22;7171;50.936;6.764;2022-08-21T07:13:12;18.90;99.90
14182;DHT22;7171;50.936;6.764;2022-08-21T07:15:38;18.90;99.90
14182;DHT22;7171;50.936;6.764;2022-08-21T07:18:06;19.00;99.90
14182;DHT22;7171;50.936;6.764;2022-08-21T07:20:33;19.00;99.90
14182;DHT22;7171;50.936;6.764;2022-08-21T07:23:06;19.10;99.90
14182;DHT22;7171;50.936;6.764;2022-08-21T07:25:34;19.20;99.90
14182;DHT22;7171;50.936;6.764;2022-08-21T07:30:28;19.30;99.90
14182;DHT22;7171;50.936;6.764;2022-08-21T07:32:55;19.40;99.90
14182;DHT22;7171;50.936;6.764;2022-08-21T07:35:23;19.50;99.90
14182;DHT22;7171;50.936;6.764;2022-08-21T07:37:50;19.50;99.90
14182;DHT22;7171;50.936;6.764;2022-08-21T07:40:18;19.60;99.90
14182;DHT22;7171;50.936;6.764;2022-08-21T07:42:48;19.70;99.90
14182;DHT22;7171;50.936;6.764;2022-08-21T07:45:18;19.70;99.90
14182;DHT22;7171;50.936;6.764;2022-08-21T07:47:45;19.90;99.90
14182;DHT22;7171;50.936;6.764;2022-08-21T07:50:13;19.80;99.90
14182;DHT22;7171;50.936;6.764;2022-08-21T07:52:40;19.90;99.90
14182;DHT22;7171;50.936;6.764;2022-08-21T07:55:08;20.00;99.90
14182;DHT22;7171;50.936;6.764;2022-08-21T07:57:37;20.00;99.90
14182;DHT22;7171;50.936;6.764;2022-08-21T08:00:05;20.10;99.90
14182;DHT22;7171;50.936;6.764;2022-08-21T08:02:32;20.10;99.90
14182;DHT22;7171;50.936;6.764;2022-08-21T08:04:59;20.10;99.90
14182;DHT22;7171;50.936;6.764;2022-08-21T08:07:27;20.30;99.90
14182;DHT22;7171;50.936;6.764;2022-08-21T08:09:54;20.30;99.90
14182;DHT22;7171;50.936;6.764;2022-08-21T08:12:21;20.30;99.90
14182;DHT22;7171;50.936;6.764;2022-08-21T08:14:49;20.40;99.90
14182;DHT22;7171;50.936;6.764;2022-08-21T08:19:47;20.50;99.90
14182;DHT22;7171;50.936;6.764;2022-08-21T08:22:16;20.70;99.90
14182;DHT22;7171;50.936;6.764;2022-08-21T08:24:44;20.70;99.90
14182;DHT22;7171;50.936;6.764;2022-08-21T08:27:11;20.80;99.90
14182;DHT22;7171;50.936;6.764;2022-08-21T08:29:39;20.80;99.90
14182;DHT22;7171;50.936;6.764;2022-08-21T08:32:07;21.00;99.90
14182;DHT22;7171;50.936;6.764;2022-08-21T08:34:34;21.00;99.90
14182;DHT22;7171;50.936;6.764;2022-08-21T08:37:01;21.00;99.90
14182;DHT22;7171;50.936;6.764;2022-08-21T08:39:28;21.10;99.90
14182;DHT22;7171;50.936;6.764;2022-08-21T08:41:59;21.20;99.90
14182;DHT22;7171;50.936;6.764;2022-08-21T08:44:28;21.30;99.90
14182;DHT22;7171;50.936;6.764;2022-08-21T08:46:56;21.40;99.90
14182;DHT22;7171;50.936;6.764;2022-08-21T08:49:31;21.50;99.90
14182;DHT22;7171;50.936;6.764;2022-08-21T08:52:03;21.50;99.90
14182;DHT22;7171;50.936;6.764;2022-08-21T08:54:35;21.60;99.90
14182;DHT22;7171;50.936;6.764;2022-08-21T08:57:18;21.70;99.90
14182;DHT22;7171;50.936;6.764;2022-08-21T08:59:48;21.80;99.90
14182;DHT22;7171;50.936;6.764;2022-08-21T09:02:17;21.90;99.90
14182;DHT22;7171;50.936;6.764;2022-08-21T09:04:47;21.90;99.90
14182;DHT22;7171;50.936;6.764;2022-08-21T09:07:19;22.00;99.90
14182;DHT22;7171;50.936;6.764;2022-08-21T09:10:03;22.10;99.90
14182;DHT22;7171;50.936;6.764;2022-08-21T09:12:37;22.20;99.90
14182;DHT22;7171;50.936;6.764;2022-08-21T09:15:12;22.20;99.90
14182;DHT22;7171;50.936;6.764;2022-08-21T09:18:08;22.30;99.90
14182;DHT22;7171;50.936;6.764;2022-08-21T09:20:44;22.40;99.90
14182;DHT22;7171;50.936;6.764;2022-08-21T09:23:23;22.40;99.90
14182;DHT22;7171;50.936;6.764;2022-08-21T09:25:58;22.60;99.90
14182;DHT22;7171;50.936;6.764;2022-08-21T09:28:26;22.60;99.90
14182;DHT22;7171;50.936;6.764;2022-08-21T09:30:55;22.60;99.90
14182;DHT22;7171;50.936;6.764;2022-08-21T09:33:23;22.70;99.90
14182;DHT22;7171;50.936;6.764;2022-08-21T09:35:55;22.80;99.90
14182;DHT22;7171;50.936;6.764;2022-08-21T09:38:29;22.80;99.90
14182;DHT22;7171;50.936;6.764;2022-08-21T09:41:00;22.90;99.90
14182;DHT22;7171;50.936;6.764;2022-08-21T09:43:27;22.90;99.90
14182;DHT22;7171;50.936;6.764;2022-08-21T09:46:03;23.00;99.90
14182;DHT22;7171;50.936;6.764;2022-08-21T09:48:39;23.00;99.90
14182;DHT22;7171;50.936;6.764;2022-08-21T09:51:11;23.10;99.90
14182;DHT22;7171;50.936;6.764;2022-08-21T09:53:42;23.10;99.90
14182;DHT22;7171;50.936;6.764;2022-08-21T09:56:19;23.20;99.90
14182;DHT22;7171;50.936;6.764;2022-08-21T09:59:18;23.30;99.90
14182;DHT22;7171;50.936;6.764;2022-08-21T10:01:47;23.30;99.90
14182;DHT22;7171;50.936;6.764;2022-08-21T10:04:14;23.30;99.90
14182;DHT22;7171;50.936;6.764;2022-08-21T10:06:43;23.30;99.90
14182;DHT22;7171;50.936;6.764;2022-08-21T10:09:12;23.40;99.90
14182;DHT22;7171;50.936;6.764;2022-08-21T10:11:40;23.40;99.90
14182;DHT22;7171;50.936;6.764;2022-08-21T10:14:16;23.50;99.90
14182;DHT22;7171;50.936;6.764;2022-08-21T10:16:55;23.50;99.90
14182;DHT22;7171;50.936;6.764;2022-08-21T10:19:32;23.60;99.90
14182;DHT22;7171;50.936;6.764;2022-08-21T10:22:08;23.60;99.90
14182;DHT22;7171;50.936;6.764;2022-08-21T10:24:45;23.70;99.90
14182;DHT22;7171;50.936;6.764;2022-08-21T10:27:22;23.80;99.90
14182;DHT22;7171;50.936;6.764;2022-08-21T10:29:57;23.90;99.90
14182;DHT22;7171;50.936;6.764;2022-08-21T10:35:26;24.00;99.90
14182;DHT22;7171;50.936;6.764;2022-08-21T10:38:11;24.10;99.90
14182;DHT22;7171;50.936;6.764;2022-08-21T10:40:46;24.10;99.90
14182;DHT22;7171;50.936;6.764;2022-08-21T10:43:21;24.20;99.90
14182;DHT22;7171;50.936;6.764;2022-08-21T10:45:59;24.30;99.80
14182;DHT22;7171;50.936;6.764;2022-08-21T10:48:30;24.30;99.90
14182;DHT22;7171;50.936;6.764;2022-08-21T10:51:09;24.40;99.90
14182;DHT22;7171;50.936;6.764;2022-08-21T10:53:45;24.40;99.90
14182;DHT22;7171;50.936;6.764;2022-08-21T10:56:17;24.40;99.70
14182;DHT22;7171;50.936;6.764;2022-08-21T10:58:59;24.50;99.50
14182;DHT22;7171;50.936;6.764;2022-08-21T11:01:30;24.60;99.70
14182;DHT22;7171;50.936;6.764;2022-08-21T11:04:09;24.70;99.50
14182;DHT22;7171;50.936;6.764;2022-08-21T11:06:41;24.70;99.90
14182;DHT22;7171;50.936;6.764;2022-08-21T11:09:13;24.80;99.90
14182;DHT22;7171;50.936;6.764;2022-08-21T11:11:45;24.80;99.90
14182;DHT22;7171;50.936;6.764;2022-08-21T11:14:22;24.80;99.50
14182;DHT22;7171;50.936;6.764;2022-08-21T11:16:56;24.90;99.20
14182;DHT22;7171;50.936;6.764;2022-08-21T11:19:28;25.00;98.50
14182;DHT22;7171;50.936;6.764;2022-08-21T11:22:00;25.00;98.70
14182;DHT22;7171;50.936;6.764;2022-08-21T11:24:35;25.10;98.40
14182;DHT22;7171;50.936;6.764;2022-08-21T11:27:09;25.10;97.10
14182;DHT22;7171;50.936;6.764;2022-08-21T11:29:41;25.10;97.70
14182;DHT22;7171;50.936;6.764;2022-08-21T11:32:36;25.10;97.90
14182;DHT22;7171;50.936;6.764;2022-08-21T11:35:12;25.10;98.10
14182;DHT22;7171;50.936;6.764;2022-08-21T11:37:49;25.10;97.70
14182;DHT22;7171;50.936;6.764;2022-08-21T11:40:31;25.10;98.10
14182;DHT22;7171;50.936;6.764;2022-08-21T11:43:05;25.10;98.20
14182;DHT22;7171;50.936;6.764;2022-08-21T11:45:40;25.20;98.10
14182;DHT22;7171;50.936;6.764;2022-08-21T11:48:14;25.20;98.10
14182;DHT22;7171;50.936;6.764;2022-08-21T11:50:44;25.30;97.80
14182;DHT22;7171;50.936;6.764;2022-08-21T11:55:45;25.50;97.90
14182;DHT22;7171;50.936;6.764;2022-08-21T12:00:48;25.60;97.70
14182;DHT22;7171;50.936;6.764;2022-08-21T12:03:21;25.70;97.40
14182;DHT22;7171;50.936;6.764;2022-08-21T12:08:27;25.80;97.00
14182;DHT22;7171;50.936;6.764;2022-08-21T12:11:03;25.80;97.10
14182;DHT22;7171;50.936;6.764;2022-08-21T12:13:33;25.80;97.00
14182;DHT22;7171;50.936;6.764;2022-08-21T12:16:09;25.80;96.60
14182;DHT22;7171;50.936;6.764;2022-08-21T12:18:36;25.90;97.00
14182;DHT22;7171;50.936;6.764;2022-08-21T12:21:16;25.90;96.80
14182;DHT22;7171;50.936;6.764;2022-08-21T12:23:46;26.00;96.90
14182;DHT22;7171;50.936;6.764;2022-08-21T12:26:24;26.00;96.50
14182;DHT22;7171;50.936;6.764;2022-08-21T12:29:02;26.00;96.50
14182;DHT22;7171;50.936;6.764;2022-08-21T12:31:29;26.00;96.70
14182;DHT22;7171;50.936;6.764;2022-08-21T12:33:58;26.10;96.60
14182;DHT22;7171;50.936;6.764;2022-08-21T12:36:42;26.20;96.70
14182;DHT22;7171;50.936;6.764;2022-08-21T12:41:51;26.30;96.30
14182;DHT22;7171;50.936;6.764;2022-08-21T12:44:24;26.30;95.90
14182;DHT22;7171;50.936;6.764;2022-08-21T12:46:57;26.40;96.20
14182;DHT22;7171;50.936;6.764;2022-08-21T12:49:28;26.40;97.40
14182;DHT22;7171;50.936;6.764;2022-08-21T12:54:30;26.50;95.90
14182;DHT22;7171;50.936;6.764;2022-08-21T12:57:01;26.60;96.10
14182;DHT22;7171;50.936;6.764;2022-08-21T12:59:29;26.60;95.90
14182;DHT22;7171;50.936;6.764;2022-08-21T13:01:59;26.70;95.80
14182;DHT22;7171;50.936;6.764;2022-08-21T13:04:32;26.80;95.20
14182;DHT22;7171;50.936;6.764;2022-08-21T13:07:00;26.80;95.70
14182;DHT22;7171;50.936;6.764;2022-08-21T13:09:29;26.80;95.30
14182;DHT22;7171;50.936;6.764;2022-08-21T13:11:57;26.80;95.30
14182;DHT22;7171;50.936;6.764;2022-08-21T13:14:30;26.80;95.20
14182;DHT22;7171;50.936;6.764;2022-08-21T13:16:59;26.80;94.70
14182;DHT22;7171;50.936;6.764;2022-08-21T13:19:26;26.80;94.00
14182;DHT22;7171;50.936;6.764;2022-08-21T13:21:55;26.70;94.30
14182;DHT22;7171;50.936;6.764;2022-08-21T13:24:24;26.70;94.20
14182;DHT22;7171;50.936;6.764;2022-08-21T13:26:51;26.60;93.70
14182;DHT22;7171;50.936;6.764;2022-08-21T13:29:21;26.60;94.20
14182;DHT22;7171;50.936;6.764;2022-08-21T13:31:51;26.60;93.80
14182;DHT22;7171;50.936;6.764;2022-08-21T13:34:20;26.60;94.20
14182;DHT22;7171;50.936;6.764;2022-08-21T13:36:48;26.60;94.30
14182;DHT22;7171;50.936;6.764;2022-08-21T13:39:18;26.60;93.10
14182;DHT22;7171;50.936;6.764;2022-08-21T13:41:51;26.70;93.00
14182;DHT22;7171;50.936;6.764;2022-08-21T13:44:24;26.70;93.00
14182;DHT22;7171;50.936;6.764;2022-08-21T13:47:01;26.70;92.50
14182;DHT22;7171;50.936;6.764;2022-08-21T13:49:31;26.70;93.20
14182;DHT22;7171;50.936;6.764;2022-08-21T13:51:58;26.70;93.50
14182;DHT22;7171;50.936;6.764;2022-08-21T13:54:28;26.70;91.40
14182;DHT22;7171;50.936;6.764;2022-08-21T13:56:55;26.60;92.40
14182;DHT22;7171;50.936;6.764;2022-08-21T13:59:28;26.60;92.80
14182;DHT22;7171;50.936;6.764;2022-08-21T14:01:59;26.60;93.00
14182;DHT22;7171;50.936;6.764;2022-08-21T14:04:32;26.60;92.80
14182;DHT22;7171;50.936;6.764;2022-08-21T14:06:59;26.60;92.80
14182;DHT22;7171;50.936;6.764;2022-08-21T14:09:30;26.60;92.10
14182;DHT22;7171;50.936;6.764;2022-08-21T14:12:00;26.60;91.60
14182;DHT22;7171;50.936;6.764;2022-08-21T14:14:31;26.50;92.20
14182;DHT22;7171;50.936;6.764;2022-08-21T14:17:01;26.50;92.10
14182;DHT22;7171;50.936;6.764;2022-08-21T14:19:37;26.50;91.30
14182;DHT22;7171;50.936;6.764;2022-08-21T14:22:30;26.70;91.90
14182;DHT22;7171;50.936;6.764;2022-08-21T14:25:03;26.30;91.50
14182;DHT22;7171;50.936;6.764;2022-08-21T14:27:32;26.20;91.10
14182;DHT22;7171;50.936;6.764;2022-08-21T14:30:08;26.10;91.50
14182;DHT22;7171;50.936;6.764;2022-08-21T14:32:39;26.00;91.50
14182;DHT22;7171;50.936;6.764;2022-08-21T14:35:07;25.90;91.60
14182;DHT22;7171;50.936;6.764;2022-08-21T14:37:34;25.90;91.70
14182;DHT22;7171;50.936;6.764;2022-08-21T14:40:02;25.80;91.70
14182;DHT22;7171;50.936;6.764;2022-08-21T14:42:29;25.80;91.60
14182;DHT22;7171;50.936;6.764;2022-08-21T14:44:59;25.70;91.50
14182;DHT22;7171;50.936;6.764;2022-08-21T14:47:26;25.60;91.50
14182;DHT22;7171;50.936;6.764;2022-08-21T14:49:55;25.60;91.30
14182;DHT22;7171;50.936;6.764;2022-08-21T14:52:22;25.50;91.10
14182;DHT22;7171;50.936;6.764;2022-08-21T14:54:49;25.50;91.50
14182;DHT22;7171;50.936;6.764;2022-08-21T14:57:16;25.40;91.40
14182;DHT22;7171;50.936;6.764;2022-08-21T14:59:42;25.40;91.50
14182;DHT22;7171;50.936;6.764;2022-08-21T15:02:10;25.40;91.00
14182;DHT22;7171;50.936;6.764;2022-08-21T15:04:37;25.30;91.20
14182;DHT22;7171;50.936;6.764;2022-08-21T15:07:05;25.20;91.30
14182;DHT22;7171;50.936;6.764;2022-08-21T15:09:31;25.20;91.40
14182;DHT22;7171;50.936;6.764;2022-08-21T15:12:00;25.20;91.40
14182;DHT22;7171;50.936;6.764;2022-08-21T15:14:30;25.20;91.40
14182;DHT22;7171;50.936;6.764;2022-08-21T15:16:58;25.10;91.20
14182;DHT22;7171;50.936;6.764;2022-08-21T15:19:25;25.10;91.30
14182;DHT22;7171;50.936;6.764;2022-08-21T15:21:52;25.10;91.10
14182;DHT22;7171;50.936;6.764;2022-08-21T15:24:21;25.00;91.20
14182;DHT22;7171;50.936;6.764;2022-08-21T15:26:48;25.00;91.30
14182;DHT22;7171;50.936;6.764;2022-08-21T15:29:15;25.00;91.20
14182;DHT22;7171;50.936;6.764;2022-08-21T15:31:52;25.00;91.30
14182;DHT22;7171;50.936;6.764;2022-08-21T15:34:20;25.00;91.30
14182;DHT22;7171;50.936;6.764;2022-08-21T15:36:47;25.10;91.40
14182;DHT22;7171;50.936;6.764;2022-08-21T15:39:14;25.10;91.50
14182;DHT22;7171;50.936;6.764;2022-08-21T15:41:43;25.10;90.50
14182;DHT22;7171;50.936;6.764;2022-08-21T15:44:10;25.10;90.80
14182;DHT22;7171;50.936;6.764;2022-08-21T15:46:39;25.10;90.80
14182;DHT22;7171;50.936;6.764;2022-08-21T15:49:07;25.10;90.80
14182;DHT22;7171;50.936;6.764;2022-08-21T15:51:34;25.20;90.80
14182;DHT22;7171;50.936;6.764;2022-08-21T15:54:01;25.20;91.00
14182;DHT22;7171;50.936;6.764;2022-08-21T15:56:33;25.30;90.90
14182;DHT22;7171;50.936;6.764;2022-08-21T15:59:05;25.30;90.90
14182;DHT22;7171;50.936;6.764;2022-08-21T16:01:33;25.40;90.80
14182;DHT22;7171;50.936;6.764;2022-08-21T16:04:02;25.50;90.80
14182;DHT22;7171;50.936;6.764;2022-08-21T16:06:30;25.60;91.10
14182;DHT22;7171;50.936;6.764;2022-08-21T16:08:57;25.70;89.90
14182;DHT22;7171;50.936;6.764;2022-08-21T16:11:24;25.80;90.40
14182;DHT22;7171;50.936;6.764;2022-08-21T16:13:51;26.00;90.10
14182;DHT22;7171;50.936;6.764;2022-08-21T16:16:21;26.10;89.40
14182;DHT22;7171;50.936;6.764;2022-08-21T16:18:49;26.20;90.30
14182;DHT22;7171;50.936;6.764;2022-08-21T16:21:17;26.30;89.20
14182;DHT22;7171;50.936;6.764;2022-08-21T16:23:44;26.50;90.00
14182;DHT22;7171;50.936;6.764;2022-08-21T16:26:12;26.50;89.80
14182;DHT22;7171;50.936;6.764;2022-08-21T16:28:41;26.60;90.10
14182;DHT22;7171;50.936;6.764;2022-08-21T16:31:10;26.60;88.80
14182;DHT22;7171;50.936;6.764;2022-08-21T16:33:39;26.60;88.90